createdAt,value
2019-03-19T00:00:31.938Z,97183.56
2019-03-19T00:01:39.202Z,97189.48
2019-03-19T00:02:46.427Z,97182.67
2019-03-19T00:03:53.654Z,97183.06
2019-03-19T00:05:00.851Z,97189.48
2019-03-19T00:06:08.045Z,97181.77
2019-03-19T00:07:15.244Z,97187.80
2019-03-19T00:08:22.467Z,97192.16
2019-03-19T00:09:29.692Z,97189.64
2019-03-19T00:10:36.874Z,97190.20
2019-03-19T00:11:44.087Z,97186.02
2019-03-19T00:12:51.264Z,97182.76
2019-03-19T00:13:58.491Z,97187.56
2019-03-19T00:15:06.436Z,97185.88
2019-03-19T00:16:13.616Z,97191.52
2019-03-19T00:17:20.827Z,97193.30
2019-03-19T00:18:28.023Z,97192.02
2019-03-19T00:19:35.219Z,97188.62
2019-03-19T00:20:42.431Z,97188.62
2019-03-19T00:21:49.613Z,97186.83
2019-03-19T00:22:56.821Z,97182.14
2019-03-19T00:24:04.019Z,97178.23
2019-03-19T00:25:11.499Z,97185.88
2019-03-19T00:26:18.695Z,97188.00
2019-03-19T00:27:25.904Z,97184.99
2019-03-19T00:28:33.121Z,97193.92
2019-03-19T00:29:40.297Z,97196.44
2019-03-19T00:30:47.521Z,97187.84
2019-03-19T00:31:54.719Z,97192.08
2019-03-19T00:33:01.912Z,97195.45
2019-03-19T00:34:09.111Z,97196.29
2019-03-19T00:35:16.408Z,97198.02
2019-03-19T00:36:23.651Z,97194.56
2019-03-19T00:37:30.829Z,97197.13
2019-03-19T00:38:38.026Z,97193.72
2019-03-19T00:39:45.223Z,97193.66
2019-03-19T00:40:52.415Z,97197.97
2019-03-19T00:41:59.686Z,97193.66
2019-03-19T00:43:06.986Z,97192.38
2019-03-19T00:44:14.167Z,97186.80
2019-03-19T00:45:21.381Z,97191.16
2019-03-19T00:46:28.618Z,97191.55
2019-03-19T00:47:35.814Z,97187.70
2019-03-19T00:48:43.042Z,97188.14
2019-03-19T00:49:50.273Z,97191.99
2019-03-19T00:50:58.932Z,97188.98
2019-03-19T00:52:06.127Z,97194.56
2019-03-19T00:53:13.338Z,97198.41
2019-03-19T00:54:20.549Z,97198.02
2019-03-19T00:55:27.744Z,97206.20
2019-03-19T00:56:34.955Z,97203.16
2019-03-19T00:57:42.166Z,97201.88
2019-03-19T00:58:49.406Z,97203.69
2019-03-19T00:59:56.663Z,97197.66
2019-03-19T01:01:05.060Z,97192.97
2019-03-19T01:02:12.260Z,97193.48
2019-03-19T01:03:19.465Z,97202.07
2019-03-19T01:04:26.662Z,97196.16
2019-03-19T01:05:33.873Z,97200.95
2019-03-19T01:06:41.082Z,97194.64
2019-03-19T01:07:48.339Z,97198.14
2019-03-19T01:08:55.566Z,97200.76
2019-03-19T01:10:02.774Z,97194.45
2019-03-19T01:11:09.985Z,97197.07
2019-03-19T01:12:17.184Z,97199.64
2019-03-19T01:13:24.362Z,97197.52
2019-03-19T01:14:32.217Z,97200.53
2019-03-19T01:15:39.399Z,97204.37
2019-03-19T01:16:46.608Z,97200.14
2019-03-19T01:17:53.790Z,97201.81
2019-03-19T01:19:00.986Z,97199.64
2019-03-19T01:20:11.361Z,97202.66
2019-03-19T01:21:18.559Z,97203.55
2019-03-19T01:22:25.752Z,97204.77
2019-03-19T01:23:32.951Z,97203.94
2019-03-19T01:24:40.180Z,97200.98
2019-03-19T01:25:55.237Z,97198.86
2019-03-19T01:26:56.294Z,97201.03
2019-03-19T01:28:03.542Z,97206.22
2019-03-19T01:29:10.743Z,97201.14
2019-03-19T01:30:17.998Z,97202.42
2019-03-19T01:31:25.229Z,97204.63
2019-03-19T01:32:32.419Z,97201.67
2019-03-19T01:33:39.615Z,97203.41
2019-03-19T01:34:46.831Z,97206.86
2019-03-19T01:35:54.011Z,97203.06
2019-03-19T01:37:01.218Z,97204.40
2019-03-19T01:38:08.520Z,97207.41
2019-03-19T01:39:15.744Z,97206.13
2019-03-19T01:40:22.927Z,97204.45
2019-03-19T01:41:30.135Z,97204.06
2019-03-19T01:42:37.360Z,97204.90
2019-03-19T01:43:45.546Z,97205.34
2019-03-19T01:44:52.757Z,97204.95
2019-03-19T01:46:00.162Z,97203.67
2019-03-19T01:47:07.389Z,97196.02
2019-03-19T01:48:14.598Z,97193.91
2019-03-19T01:49:21.809Z,97197.75
2019-03-19T01:50:29.005Z,97195.63
2019-03-19T01:51:36.202Z,97197.39
2019-03-19T01:52:43.515Z,97187.18
2019-03-19T01:53:50.908Z,97198.28
2019-03-19T01:54:58.131Z,97199.17
2019-03-19T01:56:05.721Z,97195.77
2019-03-19T01:57:13.033Z,97199.17
2019-03-19T01:58:20.243Z,97199.62
2019-03-19T01:59:27.442Z,97194.94
2019-03-19T02:00:34.649Z,97195.82
2019-03-19T02:01:41.906Z,97203.91
2019-03-19T02:02:49.101Z,97199.67
2019-03-19T02:03:56.311Z,97197.94
2019-03-19T02:05:03.509Z,97197.16
2019-03-19T02:06:11.797Z,97202.73
2019-03-19T02:07:19.008Z,97201.90
2019-03-19T02:08:26.239Z,97203.63
2019-03-19T02:09:33.430Z,97204.07
2019-03-19T02:10:40.640Z,97208.36
2019-03-19T02:11:47.865Z,97199.00
2019-03-19T02:12:55.092Z,97202.84
2019-03-19T02:14:02.286Z,97204.17
2019-03-19T02:15:11.087Z,97211.48
2019-03-19T02:16:19.287Z,97211.48
2019-03-19T02:17:26.483Z,97206.44
2019-03-19T02:18:33.699Z,97204.23
2019-03-19T02:19:40.950Z,97211.56
2019-03-19T02:20:48.165Z,97206.05
2019-03-19T02:21:55.446Z,97212.90
2019-03-19T02:23:04.585Z,97216.75
2019-03-19T02:24:11.581Z,97210.78
2019-03-19T02:25:18.805Z,97213.40
2019-03-19T02:26:26.028Z,97211.33
2019-03-19T02:27:33.228Z,97217.30
2019-03-19T02:28:41.636Z,97216.12
2019-03-19T02:29:48.836Z,97219.18
2019-03-19T02:30:56.044Z,97225.20
2019-03-19T02:32:03.317Z,97218.42
2019-03-19T02:33:10.523Z,97216.36
2019-03-19T02:34:17.722Z,97215.97
2019-03-19T02:35:24.945Z,97214.34
2019-03-19T02:36:32.169Z,97217.34
2019-03-19T02:37:39.382Z,97222.08
2019-03-19T02:38:46.546Z,97221.30
2019-03-19T02:39:53.736Z,97228.59
2019-03-19T02:41:00.921Z,97224.36
2019-03-19T02:42:08.132Z,97220.59
2019-03-19T02:43:15.364Z,97226.53
2019-03-19T02:44:22.539Z,97224.44
2019-03-19T02:45:29.889Z,97224.05
2019-03-19T02:46:37.064Z,97229.17
2019-03-19T02:47:44.276Z,97230.91
2019-03-19T02:48:52.536Z,97233.47
2019-03-19T02:49:59.732Z,97232.23
2019-03-19T02:51:06.928Z,97232.23
2019-03-19T02:52:14.124Z,97231.39
2019-03-19T02:53:21.347Z,97233.56
2019-03-19T02:54:28.588Z,97232.28
2019-03-19T02:55:35.785Z,97237.02
2019-03-19T02:56:42.986Z,97237.91
2019-03-19T02:57:50.193Z,97232.38
2019-03-19T02:58:57.417Z,97235.39
2019-03-19T03:00:06.724Z,97231.09
2019-03-19T03:01:13.998Z,97231.98
2019-03-19T03:02:21.198Z,97238.40
2019-03-19T03:03:28.420Z,97243.09
2019-03-19T03:04:35.629Z,97252.06
2019-03-19T03:05:42.931Z,97248.21
2019-03-19T03:06:50.139Z,97250.38
2019-03-19T03:07:58.429Z,97253.39
2019-03-19T03:09:07.456Z,97258.13
2019-03-19T03:10:15.237Z,97255.16
2019-03-19T03:11:22.465Z,97250.48
2019-03-19T03:12:29.660Z,97253.52
2019-03-19T03:13:36.871Z,97250.48
2019-03-19T03:14:46.275Z,97252.59
2019-03-19T03:15:52.999Z,97255.16
2019-03-19T03:17:00.195Z,97254.33
2019-03-19T03:18:07.603Z,97249.67
2019-03-19T03:19:14.785Z,97255.61
2019-03-19T03:20:21.987Z,97253.52
2019-03-19T03:21:29.209Z,97253.88
2019-03-19T03:22:36.369Z,97254.33
2019-03-19T03:23:43.580Z,97256.45
2019-03-19T03:24:50.788Z,97264.14
2019-03-19T03:25:57.984Z,97262.86
2019-03-19T03:27:05.211Z,97261.66
2019-03-19T03:28:12.429Z,97258.34
2019-03-19T03:29:19.685Z,97261.84
2019-03-19T03:30:26.881Z,97260.71
2019-03-19T03:31:34.086Z,97258.72
2019-03-19T03:32:41.295Z,97261.39
2019-03-19T03:33:48.492Z,97259.86
2019-03-19T03:34:55.673Z,97263.44
2019-03-19T03:36:02.883Z,97269.54
2019-03-19T03:37:10.076Z,97265.34
2019-03-19T03:38:17.290Z,97267.52
2019-03-19T03:39:24.641Z,97268.39
2019-03-19T03:40:32.613Z,97267.11
2019-03-19T03:41:39.893Z,97267.95
2019-03-19T03:42:47.647Z,97273.03
2019-03-19T03:43:54.832Z,97269.19
2019-03-19T03:45:02.020Z,97272.59
2019-03-19T03:46:09.204Z,97272.98
2019-03-19T03:47:16.441Z,97275.11
2019-03-19T03:48:23.640Z,97274.66
2019-03-19T03:49:30.836Z,97279.74
2019-03-19T03:50:38.019Z,97278.02
2019-03-19T03:51:45.214Z,97273.78
2019-03-19T03:52:52.428Z,97280.98
2019-03-19T03:53:59.630Z,97279.25
2019-03-19T03:55:07.802Z,97283.09
2019-03-19T03:56:14.997Z,97289.45
2019-03-19T03:57:22.213Z,97286.89
2019-03-19T03:58:29.406Z,97287.30
2019-03-19T03:59:36.632Z,97294.14
2019-03-19T04:00:43.854Z,97296.27
2019-03-19T04:01:51.066Z,97297.55
2019-03-19T04:02:58.278Z,97294.98
2019-03-19T04:04:05.471Z,97299.22
2019-03-19T04:05:12.981Z,97298.42
2019-03-19T04:06:20.179Z,97300.99
2019-03-19T04:07:27.376Z,97304.84
2019-03-19T04:08:34.614Z,97309.13
2019-03-19T04:09:41.839Z,97304.44
2019-03-19T04:10:49.035Z,97306.12
2019-03-19T04:11:56.232Z,97299.70
2019-03-19T04:13:03.412Z,97299.31
2019-03-19T04:14:10.612Z,97303.55
2019-03-19T04:15:18.033Z,97301.83
2019-03-19T04:16:25.239Z,97301.39
2019-03-19T04:17:32.437Z,97297.10
2019-03-19T04:18:39.645Z,97295.37
2019-03-19T04:19:46.862Z,97298.30
2019-03-19T04:20:54.146Z,97295.74
2019-03-19T04:22:01.338Z,97295.74
2019-03-19T04:23:08.547Z,97297.86
2019-03-19T04:24:15.745Z,97296.98
2019-03-19T04:25:22.954Z,97297.38
2019-03-19T04:26:30.194Z,97294.41
2019-03-19T04:27:40.070Z,97294.02
2019-03-19T04:28:46.312Z,97295.74
2019-03-19T04:29:53.536Z,97298.30
2019-03-19T04:31:00.746Z,97294.94
2019-03-19T04:32:08.965Z,97300.06
2019-03-19T04:33:16.188Z,97296.66
2019-03-19T04:34:23.384Z,97299.22
2019-03-19T04:35:30.565Z,97300.11
2019-03-19T04:36:37.746Z,97305.23
2019-03-19T04:37:45.020Z,97310.41
2019-03-19T04:38:52.257Z,97311.73
2019-03-19T04:39:59.482Z,97308.38
2019-03-19T04:41:06.708Z,97312.27
2019-03-19T04:42:13.904Z,97311.91
2019-03-19T04:43:21.129Z,97314.52
2019-03-19T04:44:28.365Z,97314.59
2019-03-19T04:45:35.535Z,97315.97
2019-03-19T04:46:42.732Z,97311.29
2019-03-19T04:47:49.937Z,97316.85
2019-03-19T04:48:57.153Z,97314.73
2019-03-19T04:50:04.670Z,97318.13
2019-03-19T04:51:11.843Z,97319.02
2019-03-19T04:52:19.532Z,97318.63
2019-03-19T04:53:26.736Z,97325.42
2019-03-19T04:54:33.924Z,97316.45
2019-03-19T04:55:41.135Z,97321.98
2019-03-19T04:56:48.345Z,97321.93
2019-03-19T04:57:55.526Z,97333.02
2019-03-19T04:59:02.785Z,97330.91
2019-03-19T05:00:10.880Z,97336.42
2019-03-19T05:01:18.133Z,97337.70
2019-03-19T05:02:25.329Z,97339.83
2019-03-19T05:03:32.525Z,97329.66
2019-03-19T05:04:39.723Z,97336.47
2019-03-19T05:05:48.011Z,97333.91
2019-03-19T05:06:55.237Z,97333.51
2019-03-19T05:08:02.452Z,97333.06
2019-03-19T05:09:10.079Z,97337.75
2019-03-19T05:10:17.431Z,97333.95
2019-03-19T05:11:24.625Z,97333.59
2019-03-19T05:12:31.838Z,97333.24
2019-03-19T05:13:39.114Z,97330.68
2019-03-19T05:14:46.326Z,97338.88
2019-03-19T05:15:53.838Z,97336.32
2019-03-19T05:17:01.048Z,97340.53
2019-03-19T05:18:08.259Z,97339.64
2019-03-19T05:19:15.471Z,97346.45
2019-03-19T05:20:22.681Z,97345.57
2019-03-19T05:21:29.966Z,97347.25
2019-03-19T05:22:37.166Z,97346.36
2019-03-19T05:23:44.386Z,97344.20
2019-03-19T05:24:51.584Z,97348.44
2019-03-19T05:25:58.793Z,97354.80
2019-03-19T05:27:05.973Z,97347.55
2019-03-19T05:28:13.171Z,97350.08
2019-03-19T05:29:20.470Z,97350.47
2019-03-19T05:30:27.685Z,97350.03
2019-03-19T05:31:34.899Z,97347.84
2019-03-19T05:32:42.122Z,97355.92
2019-03-19T05:33:49.318Z,97355.08
2019-03-19T05:34:57.519Z,97354.64
2019-03-19T05:36:04.764Z,97355.16
2019-03-19T05:37:11.986Z,97362.84
2019-03-19T05:38:19.182Z,97356.44
2019-03-19T05:39:26.393Z,97353.47
2019-03-19T05:40:33.604Z,97360.28
2019-03-19T05:41:40.815Z,97362.45
2019-03-19T05:42:48.028Z,97365.41
2019-03-19T05:43:55.222Z,97367.97
2019-03-19T05:45:02.421Z,97372.65
2019-03-19T05:46:09.779Z,97363.69
2019-03-19T05:47:17.019Z,97370.09
2019-03-19T05:48:24.227Z,97365.77
2019-03-19T05:49:31.411Z,97368.33
2019-03-19T05:50:38.640Z,97361.92
2019-03-19T05:51:45.834Z,97363.20
2019-03-19T05:52:53.110Z,97368.85
2019-03-19T05:54:00.316Z,97373.58
2019-03-19T05:55:07.887Z,97374.86
2019-03-19T05:56:15.084Z,97387.27
2019-03-19T05:57:22.265Z,97391.95
2019-03-19T05:58:29.504Z,97390.67
2019-03-19T05:59:36.689Z,97391.95
2019-03-19T06:00:43.896Z,97389.44
2019-03-19T06:01:51.093Z,97392.39
2019-03-19T06:02:58.317Z,97391.95
2019-03-19T06:04:05.545Z,97397.08
2019-03-19T06:05:13.175Z,97401.77
2019-03-19T06:06:20.341Z,97400.88
2019-03-19T06:07:27.551Z,97403.44
2019-03-19T06:08:34.767Z,97403.44
2019-03-19T06:09:42.004Z,97407.73
2019-03-19T06:10:49.381Z,97404.77
2019-03-19T06:11:56.621Z,97405.69
2019-03-19T06:13:03.819Z,97397.21
2019-03-19T06:14:11.013Z,97401.94
2019-03-19T06:15:18.448Z,97403.66
2019-03-19T06:16:25.646Z,97404.05
2019-03-19T06:17:32.828Z,97409.18
2019-03-19T06:18:40.052Z,97413.82
2019-03-19T06:19:47.263Z,97409.49
2019-03-19T06:20:54.474Z,97408.17
2019-03-19T06:22:01.687Z,97408.13
2019-03-19T06:23:08.947Z,97414.02
2019-03-19T06:24:16.182Z,97416.09
2019-03-19T06:25:23.399Z,97412.66
2019-03-19T06:26:30.621Z,97414.73
2019-03-19T06:27:37.830Z,97417.64
2019-03-19T06:28:45.032Z,97412.92
2019-03-19T06:29:52.266Z,97414.16
2019-03-19T06:30:59.509Z,97415.39
2019-03-19T06:32:06.846Z,97411.08
2019-03-19T06:33:14.080Z,97408.42
2019-03-19T06:34:21.307Z,97410.95
2019-03-19T06:35:28.700Z,97405.78
2019-03-19T06:36:35.910Z,97415.59
2019-03-19T06:37:43.124Z,97413.85
2019-03-19T06:38:51.576Z,97409.13
2019-03-19T06:39:58.801Z,97415.93
2019-03-19T06:41:05.982Z,97412.92
2019-03-19T06:42:13.194Z,97412.48
2019-03-19T06:43:20.435Z,97413.69
2019-03-19T06:44:27.645Z,97411.13
2019-03-19T06:45:34.863Z,97412.80
2019-03-19T06:46:42.068Z,97411.48
2019-03-19T06:47:49.325Z,97414.48
2019-03-19T06:48:56.564Z,97418.73
2019-03-19T06:50:03.942Z,97424.70
2019-03-19T06:51:11.154Z,97424.20
2019-03-19T06:52:18.348Z,97423.72
2019-03-19T06:53:25.560Z,97418.98
2019-03-19T06:54:32.772Z,97420.27
2019-03-19T06:55:40.019Z,97423.33
2019-03-19T06:56:47.268Z,97424.65
2019-03-19T06:57:54.988Z,97424.25
2019-03-19T06:59:02.213Z,97426.38
2019-03-19T07:00:13.657Z,97428.54
2019-03-19T07:01:20.882Z,97430.22
2019-03-19T07:02:29.203Z,97434.46
2019-03-19T07:03:36.400Z,97423.77
2019-03-19T07:04:43.656Z,97422.48
2019-03-19T07:05:50.871Z,97420.36
2019-03-19T07:06:58.124Z,97421.73
2019-03-19T07:08:05.304Z,97420.09
2019-03-19T07:09:12.515Z,97425.74
2019-03-19T07:10:19.796Z,97434.31
2019-03-19T07:11:26.996Z,97436.88
2019-03-19T07:12:34.239Z,97436.88
2019-03-19T07:13:41.464Z,97446.30
2019-03-19T07:14:48.661Z,97445.45
2019-03-19T07:15:55.887Z,97448.41
2019-03-19T07:17:03.097Z,97447.97
2019-03-19T07:18:11.467Z,97453.10
2019-03-19T07:19:18.659Z,97454.38
2019-03-19T07:20:25.959Z,97453.10
2019-03-19T07:21:33.201Z,97459.52
2019-03-19T07:22:40.443Z,97457.83
2019-03-19T07:23:47.669Z,97457.83
2019-03-19T07:24:54.866Z,97460.80
2019-03-19T07:26:02.084Z,97462.91
2019-03-19T07:27:09.272Z,97464.59
2019-03-19T07:28:21.949Z,97465.03
2019-03-19T07:29:25.404Z,97466.31
2019-03-19T07:30:32.658Z,97468.05
2019-03-19T07:31:39.915Z,97465.03
2019-03-19T07:32:47.192Z,97465.03
2019-03-19T07:33:54.411Z,97464.59
2019-03-19T07:35:01.624Z,97468.80
2019-03-19T07:36:08.835Z,97466.20
2019-03-19T07:37:17.096Z,97460.63
2019-03-19T07:38:25.747Z,97467.00
2019-03-19T07:39:32.946Z,97470.84
2019-03-19T07:40:40.201Z,97467.00
2019-03-19T07:41:47.502Z,97473.84
2019-03-19T07:42:54.698Z,97471.33
2019-03-19T07:44:01.912Z,97474.69
2019-03-19T07:45:12.529Z,97478.98
2019-03-19T07:46:19.801Z,97474.69
2019-03-19T07:47:27.401Z,97470.84
2019-03-19T07:48:34.614Z,97477.21
2019-03-19T07:49:41.822Z,97473.32
2019-03-19T07:50:49.093Z,97477.52
2019-03-19T07:51:56.335Z,97479.64
2019-03-19T07:53:03.589Z,97483.49
2019-03-19T07:54:10.775Z,97488.94
2019-03-19T07:55:17.953Z,97489.41
2019-03-19T07:56:25.193Z,97489.41
2019-03-19T07:57:32.406Z,97493.27
2019-03-19T07:58:45.201Z,97490.70
2019-03-19T07:59:48.524Z,97489.41
2019-03-19T08:00:55.747Z,97486.02
2019-03-19T08:02:03.051Z,97497.11
2019-03-19T08:03:15.977Z,97490.70
2019-03-19T08:04:19.154Z,97492.34
2019-03-19T08:05:33.110Z,97491.86
2019-03-19T08:06:35.299Z,97489.73
2019-03-19T08:07:42.647Z,97492.26
2019-03-19T08:08:49.846Z,97492.66
2019-03-19T08:09:57.039Z,97491.38
2019-03-19T08:11:04.806Z,97493.09
2019-03-19T08:12:12.060Z,97499.07
2019-03-19T08:13:19.321Z,97498.19
2019-03-19T08:14:26.513Z,97501.98
2019-03-19T08:15:33.731Z,97503.23
2019-03-19T08:16:40.935Z,97500.13
2019-03-19T08:17:48.163Z,97503.42
2019-03-19T08:18:55.373Z,97512.31
2019-03-19T08:20:02.573Z,97510.55
2019-03-19T08:21:09.855Z,97512.58
2019-03-19T08:22:17.145Z,97515.47
2019-03-19T08:23:24.398Z,97516.22
2019-03-19T08:24:31.623Z,97517.36
2019-03-19T08:25:38.820Z,97509.55
2019-03-19T08:26:46.033Z,97510.74
2019-03-19T08:27:53.257Z,97513.22
2019-03-19T08:29:00.438Z,97506.31
2019-03-19T08:30:10.019Z,97507.11
2019-03-19T08:31:17.246Z,97514.31
2019-03-19T08:32:24.430Z,97510.91
2019-03-19T08:33:31.641Z,97514.31
2019-03-19T08:34:38.869Z,97513.84
2019-03-19T08:35:46.165Z,97513.03
2019-03-19T08:36:53.452Z,97512.95
2019-03-19T08:38:00.664Z,97517.20
2019-03-19T08:39:09.495Z,97512.02
2019-03-19T08:40:16.916Z,97517.06
2019-03-19T08:41:24.112Z,97515.73
2019-03-19T08:42:31.309Z,97518.66
2019-03-19T08:43:38.512Z,97519.42
2019-03-19T08:44:45.732Z,97522.50
2019-03-19T08:45:53.004Z,97525.47
2019-03-19T08:47:00.213Z,97518.25
2019-03-19T08:48:07.439Z,97522.16
2019-03-19T08:49:14.636Z,97525.16
2019-03-19T08:50:22.044Z,97522.59
2019-03-19T08:51:29.297Z,97517.91
2019-03-19T08:52:36.540Z,97518.34
2019-03-19T08:53:43.706Z,97528.66
2019-03-19T08:54:51.269Z,97523.53
2019-03-19T08:55:58.537Z,97522.69
2019-03-19T08:57:05.760Z,97524.37
2019-03-19T08:58:13.005Z,97527.33
2019-03-19T08:59:20.243Z,97522.20
2019-03-19T09:00:27.513Z,97528.52
2019-03-19T09:01:34.742Z,97523.78
2019-03-19T09:02:42.010Z,97525.39
2019-03-19T09:03:49.210Z,97520.56
2019-03-19T09:04:56.403Z,97523.44
2019-03-19T09:06:03.593Z,97521.13
2019-03-19T09:07:10.796Z,97518.92
2019-03-19T09:08:18.030Z,97518.38
2019-03-19T09:09:25.217Z,97519.17
2019-03-19T09:10:32.428Z,97516.95
2019-03-19T09:11:39.655Z,97524.13
2019-03-19T09:12:48.475Z,97522.36
2019-03-19T09:13:55.777Z,97527.84
2019-03-19T09:15:03.075Z,97519.59
2019-03-19T09:16:10.268Z,97526.36
2019-03-19T09:17:17.466Z,97531.33
2019-03-19T09:18:24.709Z,97528.16
2019-03-19T09:19:31.932Z,97525.89
2019-03-19T09:20:39.354Z,97523.64
2019-03-19T09:21:46.655Z,97528.68
2019-03-19T09:22:53.866Z,97526.45
2019-03-19T09:24:01.107Z,97528.48
2019-03-19T09:25:08.593Z,97534.33
2019-03-19T09:26:15.814Z,97528.25
2019-03-19T09:27:23.026Z,97526.86
2019-03-19T09:28:30.223Z,97527.61
2019-03-19T09:29:37.431Z,97532.61
2019-03-19T09:30:44.721Z,97535.13
2019-03-19T09:31:51.930Z,97526.48
2019-03-19T09:32:59.139Z,97536.70
2019-03-19T09:34:06.353Z,97528.89
2019-03-19T09:35:14.086Z,97528.31
2019-03-19T09:36:21.331Z,97533.30
2019-03-19T09:37:28.538Z,97531.91
2019-03-19T09:38:35.765Z,97535.14
2019-03-19T09:39:42.977Z,97538.50
2019-03-19T09:40:50.260Z,97535.41
2019-03-19T09:41:57.503Z,97532.34
2019-03-19T09:43:04.715Z,97539.55
2019-03-19T09:44:11.939Z,97540.84
2019-03-19T09:45:19.465Z,97535.20
2019-03-19T09:46:26.773Z,97539.05
2019-03-19T09:47:33.995Z,97539.36
2019-03-19T09:48:41.187Z,97551.27
2019-03-19T09:49:48.444Z,97552.01
2019-03-19T09:50:55.639Z,97547.26
2019-03-19T09:52:02.837Z,97551.06
2019-03-19T09:53:10.061Z,97548.89
2019-03-19T09:54:17.266Z,97547.07
2019-03-19T09:55:24.468Z,97554.73
2019-03-19T09:56:31.709Z,97555.08
2019-03-19T09:57:39.910Z,97560.11
2019-03-19T09:58:47.152Z,97553.67
2019-03-19T09:59:54.365Z,97563.41
2019-03-19T10:01:01.558Z,97558.72
2019-03-19T10:02:08.758Z,97558.19
2019-03-19T10:03:16.043Z,97556.84
2019-03-19T10:04:23.265Z,97556.34
2019-03-19T10:05:30.541Z,97545.50
2019-03-19T10:06:37.763Z,97540.63
2019-03-19T10:07:44.990Z,97545.13
2019-03-19T10:08:52.259Z,97543.69
2019-03-19T10:09:59.515Z,97543.88
2019-03-19T10:11:06.711Z,97542.36
2019-03-19T10:12:13.944Z,97549.33
2019-03-19T10:13:21.150Z,97550.39
2019-03-19T10:14:28.374Z,97555.22
2019-03-19T10:15:35.637Z,97554.60
2019-03-19T10:16:42.915Z,97551.77
2019-03-19T10:17:50.171Z,97555.06
2019-03-19T10:18:57.353Z,97563.06
2019-03-19T10:20:05.555Z,97560.28
2019-03-19T10:21:13.785Z,97550.36
2019-03-19T10:22:21.014Z,97550.70
2019-03-19T10:23:28.223Z,97546.72
2019-03-19T10:24:35.435Z,97549.53
2019-03-19T10:25:42.725Z,97548.58
2019-03-19T10:26:50.020Z,97550.64
2019-03-19T10:27:57.252Z,97547.11
2019-03-19T10:29:04.458Z,97559.88
2019-03-19T10:30:17.909Z,97559.81
2019-03-19T10:31:26.125Z,97559.33
2019-03-19T10:32:33.351Z,97567.00
2019-03-19T10:33:41.224Z,97571.25
2019-03-19T10:34:48.465Z,97572.55
2019-03-19T10:35:55.674Z,97569.52
2019-03-19T10:37:02.959Z,97569.52
2019-03-19T10:38:11.311Z,97570.74
2019-03-19T10:39:18.573Z,97564.75
2019-03-19T10:40:25.798Z,97564.24
2019-03-19T10:41:33.010Z,97563.41
2019-03-19T10:42:41.213Z,97562.95
2019-03-19T10:43:48.451Z,97573.71
2019-03-19T10:44:55.661Z,97559.15
2019-03-19T10:46:02.888Z,97569.45
2019-03-19T10:47:10.098Z,97569.06
2019-03-19T10:48:17.295Z,97574.28
2019-03-19T10:49:24.527Z,97573.14
2019-03-19T10:50:31.749Z,97573.66
2019-03-19T10:51:38.962Z,97568.62
2019-03-19T10:52:46.228Z,97574.67
2019-03-19T10:53:53.424Z,97569.52
2019-03-19T10:55:00.640Z,97569.63
2019-03-19T10:56:07.830Z,97570.53
2019-03-19T10:57:15.030Z,97576.58
2019-03-19T10:58:22.226Z,97577.87
2019-03-19T10:59:29.434Z,97580.09
2019-03-19T11:00:36.663Z,97571.97
2019-03-19T11:01:43.901Z,97572.81
2019-03-19T11:02:51.298Z,97575.74
2019-03-19T11:03:59.466Z,97573.56
2019-03-19T11:05:08.540Z,97569.19
2019-03-19T11:06:15.777Z,97575.06
2019-03-19T11:07:22.976Z,97578.36
2019-03-19T11:08:30.198Z,97578.66
2019-03-19T11:09:37.415Z,97572.55
2019-03-19T11:10:44.635Z,97572.48
2019-03-19T11:11:51.881Z,97574.05
2019-03-19T11:12:59.131Z,97572.63
2019-03-19T11:14:06.331Z,97566.03
2019-03-19T11:15:15.939Z,97568.82
2019-03-19T11:16:23.151Z,97568.67
2019-03-19T11:17:30.390Z,97565.42
2019-03-19T11:18:37.632Z,97569.88
2019-03-19T11:19:44.843Z,97572.58
2019-03-19T11:20:52.056Z,97564.97
2019-03-19T11:21:59.266Z,97563.34
2019-03-19T11:23:06.905Z,97565.50
2019-03-19T11:24:14.111Z,97566.02
2019-03-19T11:25:21.364Z,97570.37
2019-03-19T11:26:28.636Z,97565.70
2019-03-19T11:27:35.835Z,97566.20
2019-03-19T11:28:43.057Z,97571.46
2019-03-19T11:29:59.458Z,97564.29
2019-03-19T11:30:59.162Z,97558.76
2019-03-19T11:32:06.341Z,97566.20
2019-03-19T11:33:13.558Z,97567.22
2019-03-19T11:34:20.763Z,97566.19
2019-03-19T11:35:28.177Z,97568.53
2019-03-19T11:36:35.410Z,97570.52
2019-03-19T11:37:42.607Z,97568.70
2019-03-19T11:38:49.832Z,97569.86
2019-03-19T11:39:57.057Z,97568.02
2019-03-19T11:41:07.069Z,97571.44
2019-03-19T11:42:13.415Z,97567.04
2019-03-19T11:43:20.614Z,97569.55
2019-03-19T11:44:27.828Z,97563.34
2019-03-19T11:45:35.292Z,97567.01
2019-03-19T11:46:42.517Z,97571.06
2019-03-19T11:47:49.772Z,97567.64
2019-03-19T11:48:56.968Z,97570.70
2019-03-19T11:50:04.585Z,97568.57
2019-03-19T11:51:11.790Z,97566.43
2019-03-19T11:52:18.994Z,97561.50
2019-03-19T11:53:26.221Z,97569.04
2019-03-19T11:54:33.421Z,97570.08
2019-03-19T11:55:40.630Z,97564.69
2019-03-19T11:56:47.853Z,97573.98
2019-03-19T11:57:57.516Z,97564.78
2019-03-19T11:59:04.720Z,97565.12
2019-03-19T12:00:18.097Z,97564.02
2019-03-19T12:01:25.342Z,97564.16
2019-03-19T12:02:32.568Z,97561.87
2019-03-19T12:03:39.806Z,97570.25
2019-03-19T12:04:47.062Z,97567.81
2019-03-19T12:05:54.263Z,97571.91
2019-03-19T12:07:01.470Z,97575.13
2019-03-19T12:08:08.701Z,97566.68
2019-03-19T12:09:15.925Z,97566.36
2019-03-19T12:10:23.149Z,97568.57
2019-03-19T12:11:30.329Z,97569.02
2019-03-19T12:12:37.555Z,97565.22
2019-03-19T12:13:44.752Z,97561.87
2019-03-19T12:14:52.022Z,97569.72
2019-03-19T12:15:59.234Z,97564.63
2019-03-19T12:17:06.433Z,97564.63
2019-03-19T12:18:13.670Z,97565.98
2019-03-19T12:19:20.886Z,97564.70
2019-03-19T12:20:28.109Z,97565.16
2019-03-19T12:21:36.503Z,97562.50
2019-03-19T12:22:43.696Z,97566.20
2019-03-19T12:23:50.895Z,97567.80
2019-03-19T12:24:58.106Z,97565.84
2019-03-19T12:26:05.304Z,97567.20
2019-03-19T12:27:12.525Z,97560.90
2019-03-19T12:28:19.843Z,97560.50
2019-03-19T12:29:27.071Z,97567.36
2019-03-19T12:30:34.281Z,97566.81
2019-03-19T12:31:41.491Z,97558.50
2019-03-19T12:32:48.756Z,97563.03
2019-03-19T12:33:55.957Z,97559.95
2019-03-19T12:35:04.894Z,97558.55
2019-03-19T12:36:12.182Z,97564.97
2019-03-19T12:37:19.407Z,97566.23
2019-03-19T12:38:26.631Z,97562.75
2019-03-19T12:39:33.843Z,97561.06
2019-03-19T12:40:41.070Z,97555.08
2019-03-19T12:41:48.607Z,97554.76
2019-03-19T12:42:55.879Z,97553.11
2019-03-19T12:44:03.076Z,97550.73
2019-03-19T12:45:12.885Z,97556.48
2019-03-19T12:46:20.113Z,97554.19
2019-03-19T12:47:27.320Z,97560.13
2019-03-19T12:48:34.561Z,97551.43
2019-03-19T12:49:41.775Z,97560.50
2019-03-19T12:50:48.985Z,97561.04
2019-03-19T12:51:56.194Z,97563.71
2019-03-19T12:53:03.411Z,97565.92
2019-03-19T12:54:10.620Z,97561.31
2019-03-19T12:55:17.858Z,97561.86
2019-03-19T12:56:25.071Z,97559.34
2019-03-19T12:57:32.280Z,97567.58
2019-03-19T12:58:39.478Z,97561.10
2019-03-19T12:59:46.690Z,97564.53
2019-03-19T13:00:53.899Z,97565.82
2019-03-19T13:02:01.124Z,97563.69
2019-03-19T13:03:08.380Z,97559.80
2019-03-19T13:04:15.593Z,97565.82
2019-03-19T13:05:22.913Z,97569.63
2019-03-19T13:06:30.104Z,97566.12
2019-03-19T13:07:37.315Z,97562.13
2019-03-19T13:08:44.546Z,97562.50
2019-03-19T13:09:51.737Z,97565.09
2019-03-19T13:10:58.949Z,97560.74